| |
Missouri Department of Transportation

Social Media Facebook Twitter Flickr Blog YouTube RSS

Current AWOS Information

 
AWOS Home - General Info for all Airports
Current AWOS for all Airports - Current METAR for all Airports
Glossary - Disclaimer - Other Links


HANNIBAL--HANNIBAL REGIONAL--KHAE
 
Recent AWOS History
 
12/22/14     04:40 PM CST      22:40 GMT
Air Temperature 45°F (7°C ) 1st Cloud Layer Overcast at 400 feet
Dew Point 43°F (6°C) 2nd Cloud Layer  
Barometric Pressure 29.51 in Hg. 3rd Cloud Layer  
Wind Speed 4 mph (4 knots) Density Altitude  
Peak Wind Gusts   Variable Wind Directions  
Wind Direction Quadrant(110°) Variable Visibility  
Visibility 3 statute miles  

Thunderstorm and Precipitation Identification:  Mist
Thunderstorm Remarks: 

Current METAR Record: METAR KHAE 222240Z AUTO 11004KT 3SM BR OVC004 07/06 A2951 RMK AO2

 

 

 

About Us
How Do I...
Contact Us
Missouri Department of Transportation
Central Office
105 W. Capitol Avenue
Jefferson City, MO 65102
1-888-ASK-MODOT (275-6636)
1-866-831-6277 (Motor Carrier Services)
Drivers License Offices
horz_bar
| | |
Missouri State Government
© 2013 Missouri Department of Transportation. All Rights Reserved.   Privacy Policy.
 
 
 
 
RSS FeedYoutubeBlogFlickrTwitter Facebook